Eller, North Carolina
Current Conditions -  °F | °C
As of 2:54 AM on Friday 28 Nov 2014 (Local Time) from KINT Reporting Station
Clear Clear  
Wind Chill: 26°   Ceiling: Unl
Heat Index: 32°   Visibility: 10mi
Dew Point: 16°   Wind: 6mph
Humidity: 52%   Direction: 280°W
Pressure: 30.3"   Gusts: NA
Location:  36.0182°N, 80.183°W
Report Text: KINT 280754Z AUTO 28005KT 10SM CLR 00/M09 A3030 RMK AO2 SLP263 T00001089
Loading
Personal Weather Stations






























Interactive Weather Map New forecast layout! Learn more

10-Day Weather Forecast

Advertisements
Track Severe Weather on mobile